createdAt,value
2024-05-09T00:01:07.345Z,4.13
2024-05-09T00:06:09.998Z,3.97
2024-05-09T00:11:14.795Z,4.55
2024-05-09T00:16:16.607Z,4.50
2024-05-09T00:21:18.326Z,4.18
2024-05-09T00:26:20.067Z,4.07
2024-05-09T00:31:21.818Z,4.22
2024-05-09T00:36:23.571Z,4.47
2024-05-09T00:41:25.309Z,3.67
2024-05-09T00:46:27.173Z,4.40
2024-05-09T00:51:29.310Z,4.18
2024-05-09T00:56:31.171Z,3.95
2024-05-09T01:01:33.182Z,4.15
2024-05-09T01:06:34.969Z,3.90
2024-05-09T01:11:38.351Z,4.25
2024-05-09T01:16:40.340Z,4.05
2024-05-09T01:21:42.054Z,4.07
2024-05-09T01:26:43.836Z,4.00
2024-05-09T01:31:47.342Z,4.07
2024-05-09T01:36:49.111Z,4.03
2024-05-09T01:41:50.954Z,3.72
2024-05-09T01:46:52.755Z,4.00
2024-05-09T01:51:54.473Z,4.00
2024-05-09T01:56:56.242Z,4.15
2024-05-09T02:01:58.183Z,3.55
2024-05-09T02:07:00.061Z,3.90
2024-05-09T02:12:02.078Z,3.63
2024-05-09T02:17:04.245Z,3.95
2024-05-09T02:22:06.004Z,3.47
2024-05-09T02:27:07.770Z,3.42
2024-05-09T02:32:09.580Z,3.72
2024-05-09T02:37:11.365Z,3.67
2024-05-09T02:42:13.116Z,3.65
2024-05-09T02:47:14.990Z,3.70
2024-05-09T02:52:19.872Z,4.00
2024-05-09T02:57:21.636Z,3.58
2024-05-09T03:02:23.446Z,3.50
2024-05-09T03:07:25.218Z,3.65
2024-05-09T03:12:28.405Z,3.90
2024-05-09T03:17:30.409Z,3.42
2024-05-09T03:22:32.327Z,3.63
2024-05-09T03:27:34.035Z,3.08
2024-05-09T03:32:35.972Z,4.03
2024-05-09T03:37:37.740Z,4.20
2024-05-09T03:42:41.898Z,4.70
2024-05-09T03:47:43.827Z,5.53
2024-05-09T03:52:45.806Z,5.10
2024-05-09T03:57:47.525Z,6.50
2024-05-09T04:02:49.541Z,7.13
2024-05-09T04:07:51.437Z,6.55
2024-05-09T04:12:53.412Z,6.55
2024-05-09T04:17:55.356Z,6.80
2024-05-09T04:22:57.386Z,5.53
2024-05-09T04:27:59.141Z,5.70
2024-05-09T04:33:01.058Z,5.38
2024-05-09T04:38:03.148Z,4.63
2024-05-09T04:43:06.187Z,4.75
2024-05-09T04:48:09.058Z,4.65
2024-05-09T04:53:15.899Z,4.90
2024-05-09T04:58:17.692Z,4.03
2024-05-09T05:03:20.022Z,3.90
2024-05-09T05:08:21.914Z,4.05
2024-05-09T05:13:24.513Z,4.60
2024-05-09T05:18:28.121Z,4.53
2024-05-09T05:23:30.273Z,4.03
2024-05-09T05:28:32.063Z,4.75
2024-05-09T05:33:33.915Z,4.45
2024-05-09T05:38:35.942Z,4.30
2024-05-09T05:43:37.660Z,4.60
2024-05-09T05:48:39.812Z,5.32
2024-05-09T05:53:41.627Z,4.32
2024-05-09T05:58:43.419Z,3.90
2024-05-09T06:03:45.239Z,4.57
2024-05-09T06:08:47.096Z,4.20
2024-05-09T06:13:48.961Z,4.38
2024-05-09T06:18:50.873Z,4.30
2024-05-09T06:23:53.574Z,4.28
2024-05-09T06:28:55.383Z,4.18
2024-05-09T06:33:57.280Z,4.60
2024-05-09T06:38:59.183Z,4.18
2024-05-09T06:44:00.920Z,3.88
2024-05-09T06:49:08.118Z,4.18
2024-05-09T06:54:10.342Z,3.95
2024-05-09T06:59:12.134Z,4.10
2024-05-09T07:04:14.044Z,3.85
2024-05-09T07:09:15.847Z,4.35
2024-05-09T07:14:17.647Z,3.65
2024-05-09T07:19:19.506Z,4.00
2024-05-09T07:24:21.317Z,3.80
2024-05-09T07:29:23.049Z,3.58
2024-05-09T07:34:25.499Z,3.38
2024-05-09T07:39:27.598Z,3.42
2024-05-09T07:44:30.717Z,3.10
2024-05-09T07:54:37.272Z,3.13
2024-05-09T07:59:39.290Z,3.30
2024-05-09T08:04:41.280Z,3.25
2024-05-09T08:09:43.238Z,3.35
2024-05-09T08:14:44.989Z,2.90
2024-05-09T08:19:47.936Z,3.35
2024-05-09T08:24:49.793Z,3.22
2024-05-09T08:29:51.559Z,2.70
2024-05-09T08:34:53.431Z,2.40
2024-05-09T08:39:55.296Z,2.20
2024-05-09T08:44:57.098Z,2.10
2024-05-09T08:50:01.004Z,2.40
2024-05-09T08:55:03.537Z,2.40
2024-05-09T09:00:10.214Z,2.78
2024-05-09T09:05:17.902Z,2.25
2024-05-09T09:10:29.221Z,2.58
2024-05-09T09:15:33.600Z,2.60
2024-05-09T09:20:36.861Z,2.38
2024-05-09T09:25:42.394Z,2.42
2024-05-09T09:30:44.356Z,2.17
2024-05-09T09:35:46.185Z,2.35
2024-05-09T09:40:50.110Z,2.38
2024-05-09T09:45:53.895Z,2.30
2024-05-09T09:50:56.866Z,2.45
2024-05-09T09:55:59.372Z,2.65
2024-05-09T10:01:01.228Z,3.40
2024-05-09T10:06:04.411Z,2.58
2024-05-09T10:11:06.831Z,2.40
2024-05-09T10:16:10.575Z,2.80
2024-05-09T10:21:19.629Z,2.60
2024-05-09T10:26:34.105Z,2.95
2024-05-09T10:31:41.159Z,2.58
2024-05-09T10:36:43.913Z,2.20
2024-05-09T10:41:45.756Z,2.83
2024-05-09T10:46:48.128Z,3.05
2024-05-09T10:51:50.743Z,3.30
2024-05-09T10:56:58.560Z,2.83
2024-05-09T11:02:04.011Z,2.80
2024-05-09T11:07:10.211Z,3.00
2024-05-09T11:12:12.199Z,1.95
2024-05-09T11:17:14.302Z,2.97
2024-05-09T11:22:17.199Z,2.75
2024-05-09T11:27:21.063Z,2.40
2024-05-09T11:32:30.145Z,2.65
2024-05-09T11:37:36.049Z,3.13
2024-05-09T11:42:38.961Z,2.90
2024-05-09T11:47:40.810Z,2.60
2024-05-09T11:52:42.838Z,2.60
2024-05-09T11:57:45.009Z,2.78
2024-05-09T12:02:46.831Z,2.92
2024-05-09T12:07:48.605Z,2.58
2024-05-09T12:12:50.349Z,2.65
2024-05-09T12:17:52.223Z,2.70
2024-05-09T12:22:54.176Z,2.90
2024-05-09T12:27:56.003Z,2.53
2024-05-09T12:32:57.973Z,2.60
2024-05-09T12:37:59.722Z,2.50
2024-05-09T12:43:01.521Z,2.70
2024-05-09T12:48:04.774Z,2.58
2024-05-09T12:53:06.850Z,2.50
2024-05-09T12:58:09.021Z,2.97
2024-05-09T13:03:11.100Z,2.55
2024-05-09T13:08:13.900Z,2.45
2024-05-09T13:13:15.895Z,2.47
2024-05-09T13:18:17.835Z,2.50
2024-05-09T13:23:19.620Z,2.70
2024-05-09T13:28:22.842Z,2.95
2024-05-09T13:33:24.775Z,2.75
2024-05-09T13:38:26.588Z,2.40
2024-05-09T13:43:28.584Z,2.90
2024-05-09T13:48:30.979Z,3.00
2024-05-09T13:53:32.828Z,2.47
2024-05-09T13:58:34.918Z,2.60
2024-05-09T14:03:36.889Z,2.72
2024-05-09T14:08:38.729Z,2.80
2024-05-09T14:13:40.619Z,2.80
2024-05-09T14:18:42.466Z,2.92
2024-05-09T14:23:44.217Z,2.58
2024-05-09T14:28:46.072Z,2.83
2024-05-09T14:33:48.015Z,2.50
2024-05-09T14:38:49.862Z,3.00
2024-05-09T14:43:51.567Z,3.13
2024-05-09T14:48:53.454Z,2.92
2024-05-09T14:53:55.249Z,3.00
2024-05-09T14:58:57.324Z,2.88
2024-05-09T15:03:59.130Z,2.80
2024-05-09T15:09:02.012Z,3.00
2024-05-09T15:14:03.730Z,2.53
2024-05-09T15:19:05.689Z,2.45
2024-05-09T15:24:07.484Z,2.20
2024-05-09T15:29:09.364Z,2.88
2024-05-09T15:34:11.252Z,2.70
2024-05-09T15:39:13.143Z,2.67
2024-05-09T15:44:15.265Z,2.60
2024-05-09T15:49:17.186Z,2.10
2024-05-09T15:54:19.381Z,2.00
2024-05-09T15:59:21.684Z,2.35
2024-05-09T16:04:23.615Z,2.42
2024-05-09T16:09:25.714Z,2.20
2024-05-09T16:14:27.481Z,2.40
2024-05-09T16:19:29.249Z,2.17
2024-05-09T16:24:31.030Z,2.20
2024-05-09T16:29:32.822Z,2.20
2024-05-09T16:34:34.610Z,2.30
2024-05-09T16:39:36.604Z,2.17
2024-05-09T16:44:38.334Z,2.08
2024-05-09T16:49:40.052Z,2.30
2024-05-09T16:54:41.840Z,2.45
2024-05-09T16:59:43.600Z,2.38
2024-05-09T17:04:45.482Z,2.20
2024-05-09T17:09:47.465Z,2.22
2024-05-09T17:14:49.222Z,2.03
2024-05-09T17:19:51.031Z,1.90
2024-05-09T17:24:52.812Z,2.38
2024-05-09T17:29:54.849Z,2.10
2024-05-09T17:34:56.643Z,2.45
2024-05-09T17:39:58.528Z,1.90
2024-05-09T17:45:00.729Z,2.13
2024-05-09T17:50:04.549Z,2.40
2024-05-09T17:55:07.844Z,2.20
2024-05-09T18:00:11.810Z,2.17
2024-05-09T18:05:13.848Z,2.40
2024-05-09T18:10:22.210Z,2.20
2024-05-09T18:15:27.691Z,2.20
2024-05-09T18:20:38.048Z,1.98
2024-05-09T18:25:45.971Z,2.13
2024-05-09T18:30:47.873Z,2.75
2024-05-09T18:35:49.686Z,2.88
2024-05-09T18:40:52.387Z,2.70
2024-05-09T18:45:54.219Z,2.50
2024-05-09T18:50:55.980Z,2.78
2024-05-09T18:55:57.896Z,3.10
2024-05-09T19:01:01.730Z,3.28
2024-05-09T19:06:04.178Z,3.17
2024-05-09T19:11:06.197Z,2.95
2024-05-09T19:16:08.182Z,3.08
2024-05-09T19:21:10.040Z,3.25
2024-05-09T19:26:11.797Z,3.33
2024-05-09T19:31:13.564Z,3.08
2024-05-09T19:36:15.362Z,3.28
2024-05-09T19:41:18.182Z,2.95
2024-05-09T19:46:20.246Z,3.33
2024-05-09T19:51:22.099Z,3.47
2024-05-09T19:56:24.265Z,3.80
2024-05-09T20:01:26.054Z,3.90
2024-05-09T20:06:29.632Z,3.10
2024-05-09T20:11:33.189Z,3.70
2024-05-09T20:16:35.062Z,3.33
2024-05-09T20:21:42.538Z,4.22
2024-05-09T20:26:44.293Z,4.50
2024-05-09T20:31:46.055Z,3.70
2024-05-09T20:36:48.189Z,3.45
2024-05-09T20:41:50.073Z,3.53
2024-05-09T20:46:51.816Z,3.42
2024-05-09T20:51:53.563Z,3.80
2024-05-09T20:56:55.268Z,4.00
2024-05-09T21:01:57.235Z,3.72
2024-05-09T21:06:59.122Z,3.95
2024-05-09T21:12:00.973Z,3.47
2024-05-09T21:17:02.830Z,3.72
2024-05-09T21:22:04.882Z,4.38
2024-05-09T21:27:06.699Z,4.53
2024-05-09T21:32:08.592Z,4.43
2024-05-09T21:37:10.449Z,4.60
2024-05-09T21:42:12.273Z,4.07
2024-05-09T21:47:14.037Z,4.70
2024-05-09T21:52:16.001Z,4.80
2024-05-09T21:57:17.841Z,5.00
2024-05-09T22:02:19.681Z,5.13
2024-05-09T22:07:22.086Z,5.57
2024-05-09T22:12:24.189Z,5.50
2024-05-09T22:17:26.142Z,6.10
2024-05-09T22:22:27.965Z,6.03
2024-05-09T22:27:29.682Z,6.93
2024-05-09T22:32:31.510Z,6.97
2024-05-09T22:37:33.896Z,6.00
2024-05-09T22:42:35.643Z,6.10
2024-05-09T22:47:37.455Z,6.45
2024-05-09T22:52:39.830Z,6.45
2024-05-09T22:57:41.758Z,6.30
2024-05-09T23:02:43.926Z,6.65
2024-05-09T23:07:45.659Z,6.90
2024-05-09T23:12:47.813Z,6.68
2024-05-09T23:17:49.820Z,7.00
2024-05-09T23:22:51.719Z,6.93
2024-05-09T23:27:53.641Z,6.45
2024-05-09T23:32:55.757Z,6.43
2024-05-09T23:37:57.560Z,5.80
2024-05-09T23:42:59.381Z,6.70
2024-05-09T23:48:01.456Z,7.25
2024-05-09T23:53:03.579Z,10.63
2024-05-09T23:58:06.120Z,11.80
